createdAt,value
2022-09-07T00:00:00.000Z,5.65
2022-09-07T00:15:00.000Z,5.55
2022-09-07T00:30:00.000Z,5.26
2022-09-07T00:45:00.000Z,5.47
2022-09-07T01:00:00.000Z,5.27
2022-09-07T01:15:00.000Z,5.42
2022-09-07T01:30:00.000Z,5.6
2022-09-07T01:45:00.000Z,5.51
2022-09-07T02:00:00.000Z,6.61
2022-09-07T02:15:00.000Z,6.97
2022-09-07T02:30:00.000Z,7.07
2022-09-07T02:45:00.000Z,6.93
2022-09-07T03:00:00.000Z,6.62
2022-09-07T03:15:00.000Z,8.96
2022-09-07T03:30:00.000Z,10.29
2022-09-07T03:45:00.000Z,10.6
2022-09-07T04:00:00.000Z,12.72
2022-09-07T04:15:00.000Z,11.74
2022-09-07T04:30:00.000Z,12.12
2022-09-07T04:45:00.000Z,11.73
2022-09-07T05:00:00.000Z,11.53
2022-09-07T05:15:00.000Z,7.84
2022-09-07T05:30:00.000Z,7.13
2022-09-07T05:45:00.000Z,6.13
2022-09-07T06:00:00.000Z,4.71
2022-09-07T06:15:00.000Z,5.49
2022-09-07T06:30:00.000Z,4.29
2022-09-07T06:45:00.000Z,4.29
2022-09-07T07:00:00.000Z,4.39
2022-09-07T07:15:00.000Z,4.42
2022-09-07T07:45:00.000Z,4.53
2022-09-07T08:00:00.000Z,4.35
2022-09-07T08:15:00.000Z,4.34
2022-09-07T08:30:00.000Z,4.32
2022-09-07T08:45:00.000Z,4.2
2022-09-07T09:00:00.000Z,3.99
2022-09-07T09:15:00.000Z,4.15
2022-09-07T09:30:00.000Z,4.06
2022-09-07T09:45:00.000Z,3.06
2022-09-07T10:00:00.000Z,4.93
2022-09-07T10:15:00.000Z,3.73
2022-09-07T10:30:00.000Z,4.22
2022-09-07T10:45:00.000Z,4.11
2022-09-07T11:00:00.000Z,4.4
2022-09-07T11:15:00.000Z,4.32
2022-09-07T11:30:00.000Z,4.19
2022-09-07T11:45:00.000Z,4.32
2022-09-07T12:00:00.000Z,4.45
2022-09-07T12:15:00.000Z,4.18
2022-09-07T12:30:00.000Z,4.28
2022-09-07T12:45:00.000Z,4.27
2022-09-07T13:00:00.000Z,4.21
2022-09-07T13:15:00.000Z,4.44
2022-09-07T13:30:00.000Z,4.33
2022-09-07T13:45:00.000Z,4.26
2022-09-07T14:00:00.000Z,4.72
2022-09-07T14:15:00.000Z,4.73
2022-09-07T14:30:00.000Z,4.32
2022-09-07T14:45:00.000Z,5.18
2022-09-07T15:00:00.000Z,4.27
2022-09-07T15:15:00.000Z,4.51
2022-09-07T15:30:00.000Z,4.15
2022-09-07T15:45:00.000Z,4.36
2022-09-07T16:00:00.000Z,4.44
2022-09-07T16:15:00.000Z,4.51
2022-09-07T16:45:00.000Z,6.67
2022-09-07T17:00:00.000Z,5.28
2022-09-07T17:15:00.000Z,5.56
2022-09-07T17:30:00.000Z,5.02
2022-09-07T17:45:00.000Z,5.07
2022-09-07T18:00:00.000Z,5.75
2022-09-07T18:15:00.000Z,6
2022-09-07T18:30:00.000Z,7.8
2022-09-07T18:45:00.000Z,6.75
2022-09-07T19:00:00.000Z,5.93
2022-09-07T19:15:00.000Z,5.44
2022-09-07T19:30:00.000Z,5.14
2022-09-07T19:45:00.000Z,6.75
2022-09-07T20:00:00.000Z,6.28
2022-09-07T20:15:00.000Z,6.16
2022-09-07T20:30:00.000Z,6.62
2022-09-07T20:45:00.000Z,6.58
2022-09-07T21:00:00.000Z,7.66
2022-09-07T21:15:00.000Z,6.59
2022-09-07T21:30:00.000Z,5.27
2022-09-07T21:45:00.000Z,5.69
2022-09-07T22:00:00.000Z,6.79
2022-09-07T22:15:00.000Z,7.66
2022-09-07T22:30:00.000Z,7.45
2022-09-07T22:45:00.000Z,7.53
2022-09-07T23:00:00.000Z,6.33
2022-09-07T23:15:00.000Z,6.44
2022-09-07T23:30:00.000Z,5.72
2022-09-07T23:45:00.000Z,5.67
